BAW22E KBNA-EGLL
Flight info
| Callsign | BAW22E |
|---|---|
| Flight time | 7h 38m |
| Altitude | 35000 |
| Route | KRSTA4 OLSIE DCT IIU DCT AIR DCT ELZ DCT VIEEW DCT SAEZE DCT CBIRD/N0483F370 DCT MIILS N785A JANJO/M084F380 DCT 56N050W 57N040W 57N030W 56N020W DCT RESNO DCT NETKI/N0479F390 DCT BOFUM Q37 MALUD Q38 NUGRA |
| Aircraft | A35K/H-SDE2E3GHIJ3J4J5LM1ORWXY/LB1D1 |
Departure
| Time | 2026-04-30 13:06 |
|---|---|
| Airport | Nashville International Airport (KBNA) |
Arrival
| Time | 2026-04-30 20:44 |
|---|---|
| Airport | London Heathrow Airport (EGLL) |
| Time | Latitude | Longitude | Altitude | Speed | Heading |
|---|---|---|---|---|---|
| 2026-04-30 12:31 | 36.13038 | -86.67049 | 575 ft | 0 kts | 92° |
| 2026-04-30 12:32 | 36.13057 | -86.67057 | 575 ft | 0 kts | 82° |
| 2026-04-30 12:33 | 36.13038 | -86.67049 | 575 ft | 0 kts | 92° |
| 2026-04-30 12:35 | 36.13039 | -86.67069 | 576 ft | 0 kts | 92° |
| 2026-04-30 12:35 | 36.13111 | -86.67075 | 575 ft | 0 kts | 71° |
| 2026-04-30 12:36 | 36.13090 | -86.67074 | 576 ft | 0 kts | 55° |
| 2026-04-30 12:53 | 36.13084 | -86.67085 | 578 ft | 3 kts | 55° |
| 2026-04-30 12:54 | 36.13073 | -86.67103 | 576 ft | 3 kts | 59° |
| 2026-04-30 12:54 | 36.13066 | -86.67126 | 580 ft | 3 kts | 95° |
| 2026-04-30 12:54 | 36.13071 | -86.67149 | 575 ft | 3 kts | 129° |
| 2026-04-30 12:54 | 36.13085 | -86.67164 | 576 ft | 3 kts | 163° |
| 2026-04-30 12:55 | 36.13091 | -86.67167 | 576 ft | 0 kts | 176° |
| 2026-04-30 12:56 | 36.13078 | -86.67166 | 575 ft | 3 kts | 176° |
| 2026-04-30 12:57 | 36.13046 | -86.67160 | 558 ft | 6 kts | 170° |
| 2026-04-30 12:57 | 36.12996 | -86.67166 | 580 ft | 8 kts | 201° |
| 2026-04-30 12:57 | 36.12949 | -86.67216 | 579 ft | 10 kts | 231° |
| 2026-04-30 12:57 | 36.12886 | -86.67255 | 581 ft | 11 kts | 196° |
| 2026-04-30 12:58 | 36.12819 | -86.67311 | 584 ft | 12 kts | 221° |
| 2026-04-30 12:58 | 36.12760 | -86.67380 | 582 ft | 11 kts | 224° |
| 2026-04-30 12:58 | 36.12696 | -86.67393 | 586 ft | 9 kts | 158° |
| 2026-04-30 12:58 | 36.12649 | -86.67344 | 587 ft | 9 kts | 134° |
| 2026-04-30 12:59 | 36.12602 | -86.67282 | 586 ft | 11 kts | 133° |
| 2026-04-30 12:59 | 36.12539 | -86.67200 | 588 ft | 15 kts | 133° |
| 2026-04-30 12:59 | 36.12463 | -86.67101 | 586 ft | 17 kts | 133° |
| 2026-04-30 12:59 | 36.12377 | -86.66988 | 582 ft | 20 kts | 133° |
| 2026-04-30 13:00 | 36.12289 | -86.66844 | 585 ft | 22 kts | 111° |
| 2026-04-30 13:00 | 36.12239 | -86.66658 | 580 ft | 24 kts | 108° |
| 2026-04-30 13:00 | 36.12193 | -86.66553 | 580 ft | 10 kts | 160° |
| 2026-04-30 13:00 | 36.12126 | -86.66569 | 580 ft | 9 kts | 198° |
| 2026-04-30 13:01 | 36.12067 | -86.66593 | 583 ft | 8 kts | 198° |
| 2026-04-30 13:01 | 36.12016 | -86.66613 | 583 ft | 7 kts | 198° |
| 2026-04-30 13:01 | 36.11967 | -86.66632 | 584 ft | 8 kts | 197° |
| 2026-04-30 13:01 | 36.11890 | -86.66662 | 585 ft | 16 kts | 197° |
| 2026-04-30 13:02 | 36.11785 | -86.66705 | 589 ft | 16 kts | 198° |
| 2026-04-30 13:02 | 36.11683 | -86.66746 | 592 ft | 16 kts | 198° |
| 2026-04-30 13:02 | 36.11578 | -86.66789 | 594 ft | 16 kts | 198° |
| 2026-04-30 13:02 | 36.11470 | -86.66832 | 597 ft | 16 kts | 198° |
| 2026-04-30 13:03 | 36.11366 | -86.66873 | 598 ft | 13 kts | 197° |
| 2026-04-30 13:03 | 36.11337 | -86.66883 | 597 ft | 4 kts | 192° |
| 2026-04-30 13:03 | 36.11327 | -86.66884 | 597 ft | 1 kts | 181° |
| 2026-04-30 13:03 | 36.11322 | -86.66878 | 597 ft | 1 kts | 148° |
| 2026-04-30 13:04 | 36.11318 | -86.66868 | 597 ft | 2 kts | 119° |
| 2026-04-30 13:04 | 36.11305 | -86.66841 | 597 ft | 5 kts | 117° |
| 2026-04-30 13:04 | 36.11290 | -86.66785 | 596 ft | 7 kts | 101° |
| 2026-04-30 13:04 | 36.11306 | -86.66757 | 596 ft | 3 kts | 32° |
| 2026-04-30 13:05 | 36.11324 | -86.66749 | 597 ft | 3 kts | 19° |
| 2026-04-30 13:05 | 36.11346 | -86.66740 | 597 ft | 4 kts | 19° |
| 2026-04-30 13:05 | 36.11477 | -86.66688 | 596 ft | 44 kts | 18° |
| 2026-04-30 13:06 | 36.12941 | -86.66100 | 737 ft | 154 kts | 17° |
| 2026-04-30 13:06 | 36.13926 | -86.65703 | 1570 ft | 155 kts | 17° |
| 2026-04-30 13:06 | 36.15068 | -86.65351 | 1710 ft | 177 kts | 12° |
| 2026-04-30 13:06 | 36.16286 | -86.65037 | 1718 ft | 180 kts | 13° |
| 2026-04-30 13:07 | 36.17515 | -86.64704 | 1725 ft | 181 kts | 14° |
| 2026-04-30 13:07 | 36.18729 | -86.64359 | 1724 ft | 182 kts | 15° |
| 2026-04-30 13:07 | 36.19965 | -86.63996 | 1977 ft | 183 kts | 15° |
| 2026-04-30 13:07 | 36.21247 | -86.63616 | 2465 ft | 195 kts | 15° |
| 2026-04-30 13:08 | 36.22594 | -86.63209 | 3067 ft | 201 kts | 14° |
| 2026-04-30 13:08 | 36.23961 | -86.62798 | 3679 ft | 208 kts | 14° |
| 2026-04-30 13:08 | 36.25385 | -86.62365 | 4306 ft | 213 kts | 13° |
| 2026-04-30 13:08 | 36.26853 | -86.61920 | 4898 ft | 219 kts | 13° |
| 2026-04-30 13:09 | 36.28366 | -86.61465 | 5438 ft | 230 kts | 12° |
| 2026-04-30 13:09 | 36.29970 | -86.60880 | 5778 ft | 250 kts | 18° |
| 2026-04-30 13:09 | 36.31616 | -86.60115 | 6358 ft | 260 kts | 18° |
| 2026-04-30 13:09 | 36.33318 | -86.59294 | 7054 ft | 265 kts | 18° |
| 2026-04-30 13:10 | 36.35060 | -86.58452 | 7740 ft | 271 kts | 17° |
| 2026-04-30 13:10 | 36.36835 | -86.57598 | 8463 ft | 276 kts | 16° |
| 2026-04-30 13:10 | 36.38648 | -86.56726 | 9221 ft | 281 kts | 15° |
| 2026-04-30 13:10 | 36.40501 | -86.55839 | 9931 ft | 288 kts | 14° |
| 2026-04-30 13:11 | 36.42386 | -86.54934 | 10606 ft | 292 kts | 14° |
| 2026-04-30 13:11 | 36.44269 | -86.54026 | 11354 ft | 295 kts | 14° |
| 2026-04-30 13:11 | 36.46191 | -86.53101 | 12120 ft | 297 kts | 14° |
| 2026-04-30 13:11 | 36.48129 | -86.52167 | 12865 ft | 300 kts | 14° |
| 2026-04-30 13:12 | 36.50059 | -86.51239 | 13578 ft | 303 kts | 14° |
| 2026-04-30 13:12 | 36.52039 | -86.50286 | 14257 ft | 306 kts | 14° |
| 2026-04-30 13:12 | 36.54040 | -86.49322 | 14855 ft | 310 kts | 14° |
| 2026-04-30 13:13 | 36.58097 | -86.47366 | 16012 ft | 317 kts | 13° |
| 2026-04-30 13:13 | 36.60172 | -86.46345 | 16596 ft | 321 kts | 14° |
| 2026-04-30 13:13 | 36.64329 | -86.44196 | 17811 ft | 328 kts | 14° |
| 2026-04-30 13:14 | 36.66453 | -86.43101 | 18410 ft | 332 kts | 13° |
| 2026-04-30 13:14 | 36.68602 | -86.41995 | 18910 ft | 336 kts | 13° |
| 2026-04-30 13:14 | 36.72979 | -86.39748 | 19967 ft | 343 kts | 12° |
| 2026-04-30 13:15 | 36.75143 | -86.38492 | 20456 ft | 351 kts | 18° |
| 2026-04-30 13:15 | 36.79515 | -86.35564 | 21454 ft | 359 kts | 17° |
| 2026-04-30 13:15 | 36.81732 | -86.34097 | 21946 ft | 362 kts | 17° |
| 2026-04-30 13:16 | 36.83976 | -86.32627 | 22422 ft | 366 kts | 16° |
| 2026-04-30 13:16 | 36.86250 | -86.31144 | 22904 ft | 369 kts | 16° |
| 2026-04-30 13:16 | 36.88513 | -86.29673 | 23385 ft | 372 kts | 16° |
| 2026-04-30 13:17 | 36.93163 | -86.26652 | 24227 ft | 379 kts | 15° |
| 2026-04-30 13:17 | 36.95515 | -86.25124 | 24704 ft | 381 kts | 17° |
| 2026-04-30 13:17 | 36.99450 | -86.22563 | 25371 ft | 385 kts | 16° |
| 2026-04-30 13:18 | 37.02612 | -86.20507 | 25879 ft | 388 kts | 16° |
| 2026-04-30 13:18 | 37.07464 | -86.17350 | 26566 ft | 397 kts | 17° |
| 2026-04-30 13:18 | 37.09944 | -86.15735 | 26862 ft | 402 kts | 17° |
| 2026-04-30 13:19 | 37.12410 | -86.14126 | 27196 ft | 407 kts | 17° |
| 2026-04-30 13:19 | 37.14939 | -86.12474 | 27537 ft | 411 kts | 17° |
| 2026-04-30 13:19 | 37.17484 | -86.10811 | 27892 ft | 415 kts | 17° |
| 2026-04-30 13:19 | 37.20065 | -86.09127 | 28214 ft | 420 kts | 17° |
| 2026-04-30 13:20 | 37.22672 | -86.07422 | 28508 ft | 424 kts | 17° |
| 2026-04-30 13:20 | 37.25309 | -86.05735 | 28816 ft | 426 kts | 15° |
| 2026-04-30 13:20 | 37.28009 | -86.04173 | 29103 ft | 427 kts | 13° |
| 2026-04-30 13:20 | 37.30720 | -86.02694 | 29408 ft | 430 kts | 12° |
| 2026-04-30 13:21 | 37.33494 | -86.01204 | 29713 ft | 435 kts | 12° |
| 2026-04-30 13:21 | 37.36296 | -85.99693 | 30001 ft | 439 kts | 13° |
| 2026-04-30 13:21 | 37.39109 | -85.98155 | 30282 ft | 443 kts | 13° |
| 2026-04-30 13:22 | 37.44766 | -85.95009 | 30829 ft | 451 kts | 14° |
| 2026-04-30 13:22 | 37.47646 | -85.93388 | 31083 ft | 454 kts | 14° |
| 2026-04-30 13:22 | 37.53468 | -85.90101 | 31608 ft | 460 kts | 13° |
| 2026-04-30 13:23 | 37.56378 | -85.88457 | 31845 ft | 463 kts | 13° |
| 2026-04-30 13:23 | 37.62305 | -85.85109 | 32316 ft | 469 kts | 13° |
| 2026-04-30 13:24 | 37.68284 | -85.81729 | 32815 ft | 475 kts | 13° |
| 2026-04-30 13:24 | 37.74370 | -85.78279 | 33334 ft | 480 kts | 13° |
| 2026-04-30 13:25 | 37.80446 | -85.74829 | 33819 ft | 484 kts | 13° |
| 2026-04-30 13:25 | 37.86644 | -85.71304 | 34271 ft | 488 kts | 13° |
| 2026-04-30 13:26 | 37.95933 | -85.66008 | 35010 ft | 490 kts | 13° |
| 2026-04-30 13:26 | 38.02189 | -85.62437 | 35115 ft | 500 kts | 14° |
| 2026-04-30 13:27 | 38.08387 | -85.57940 | 35114 ft | 532 kts | 30° |
| 2026-04-30 13:28 | 38.15384 | -85.46517 | 35107 ft | 561 kts | 54° |
| 2026-04-30 13:28 | 38.20974 | -85.33363 | 35101 ft | 562 kts | 56° |
| 2026-04-30 13:29 | 38.28375 | -85.15905 | 35091 ft | 561 kts | 56° |
| 2026-04-30 13:31 | 38.37690 | -84.94084 | 35090 ft | 561 kts | 56° |
| 2026-04-30 13:32 | 38.46955 | -84.72208 | 35077 ft | 561 kts | 56° |
| 2026-04-30 13:33 | 38.54350 | -84.54638 | 35097 ft | 561 kts | 57° |
| 2026-04-30 13:34 | 38.59845 | -84.41514 | 35079 ft | 559 kts | 57° |
| 2026-04-30 13:35 | 38.67150 | -84.23988 | 35076 ft | 559 kts | 57° |
| 2026-04-30 13:36 | 38.74433 | -84.06414 | 35109 ft | 559 kts | 57° |
| 2026-04-30 13:36 | 38.79289 | -83.94640 | 35075 ft | 558 kts | 57° |
| 2026-04-30 13:37 | 38.84704 | -83.81459 | 35071 ft | 559 kts | 57° |
| 2026-04-30 13:38 | 38.90130 | -83.68193 | 35067 ft | 559 kts | 58° |
| 2026-04-30 13:39 | 38.97323 | -83.50520 | 35064 ft | 558 kts | 58° |
| 2026-04-30 13:40 | 39.02707 | -83.37223 | 35051 ft | 558 kts | 58° |
| 2026-04-30 13:40 | 39.06271 | -83.28390 | 35050 ft | 558 kts | 58° |
| 2026-04-30 13:41 | 39.09847 | -83.19500 | 35050 ft | 558 kts | 58° |
| 2026-04-30 13:41 | 39.13396 | -83.10655 | 35052 ft | 558 kts | 58° |
| 2026-04-30 13:42 | 39.16954 | -83.01762 | 35056 ft | 558 kts | 58° |
| 2026-04-30 13:42 | 39.22277 | -82.88405 | 35055 ft | 557 kts | 58° |
| 2026-04-30 13:43 | 39.25806 | -82.79517 | 35050 ft | 557 kts | 58° |
| 2026-04-30 13:43 | 39.29345 | -82.70582 | 35040 ft | 558 kts | 58° |
| 2026-04-30 13:44 | 39.32857 | -82.61686 | 35024 ft | 558 kts | 58° |
| 2026-04-30 13:44 | 39.36373 | -82.52753 | 35015 ft | 557 kts | 58° |
| 2026-04-30 13:45 | 39.41623 | -82.39365 | 35002 ft | 557 kts | 59° |
| 2026-04-30 13:46 | 39.45118 | -82.30422 | 34997 ft | 556 kts | 59° |
| 2026-04-30 13:46 | 39.48614 | -82.21448 | 34993 ft | 556 kts | 59° |
| 2026-04-30 13:47 | 39.52081 | -82.12524 | 34998 ft | 557 kts | 59° |
| 2026-04-30 13:47 | 39.55559 | -82.03540 | 34984 ft | 556 kts | 59° |
| 2026-04-30 13:48 | 39.59000 | -81.94627 | 35001 ft | 555 kts | 59° |
| 2026-04-30 13:48 | 39.62451 | -81.85663 | 34987 ft | 555 kts | 59° |
| 2026-04-30 13:49 | 39.65901 | -81.76676 | 34988 ft | 555 kts | 59° |
| 2026-04-30 13:49 | 39.69325 | -81.67728 | 34988 ft | 555 kts | 59° |
| 2026-04-30 13:50 | 39.72755 | -81.58737 | 35042 ft | 555 kts | 60° |
| 2026-04-30 13:50 | 39.77863 | -81.45298 | 34974 ft | 553 kts | 60° |
| 2026-04-30 13:51 | 39.81272 | -81.36294 | 34972 ft | 553 kts | 60° |
| 2026-04-30 13:51 | 39.84649 | -81.27352 | 34957 ft | 553 kts | 60° |
| 2026-04-30 13:52 | 39.88045 | -81.18333 | 34970 ft | 554 kts | 60° |
| 2026-04-30 13:52 | 39.91431 | -81.09306 | 34997 ft | 553 kts | 60° |
| 2026-04-30 13:53 | 39.94780 | -81.00352 | 34962 ft | 553 kts | 60° |
| 2026-04-30 13:53 | 39.98144 | -80.91330 | 34965 ft | 552 kts | 60° |
| 2026-04-30 13:54 | 40.01748 | -80.82561 | 34957 ft | 547 kts | 50° |
| 2026-04-30 13:54 | 40.06704 | -80.75168 | 34953 ft | 539 kts | 41° |
| 2026-04-30 13:55 | 40.12010 | -80.68217 | 34972 ft | 538 kts | 39° |
| 2026-04-30 13:55 | 40.17314 | -80.61387 | 34961 ft | 538 kts | 39° |
| 2026-04-30 13:56 | 40.22638 | -80.54476 | 34966 ft | 538 kts | 40° |
| 2026-04-30 13:56 | 40.27936 | -80.47545 | 34969 ft | 539 kts | 40° |
| 2026-04-30 13:57 | 40.33242 | -80.40577 | 34958 ft | 539 kts | 40° |
| 2026-04-30 13:57 | 40.38542 | -80.33597 | 34956 ft | 539 kts | 40° |
| 2026-04-30 13:58 | 40.46465 | -80.23140 | 34952 ft | 539 kts | 40° |
| 2026-04-30 13:59 | 40.51731 | -80.16168 | 34945 ft | 539 kts | 41° |
| 2026-04-30 13:59 | 40.57030 | -80.09136 | 34952 ft | 540 kts | 41° |
| 2026-04-30 14:00 | 40.62322 | -80.02096 | 34939 ft | 540 kts | 41° |
| 2026-04-30 14:00 | 40.70226 | -79.91551 | 34951 ft | 541 kts | 41° |
| 2026-04-30 14:01 | 40.75505 | -79.84486 | 34958 ft | 540 kts | 41° |
| 2026-04-30 14:01 | 40.80761 | -79.77437 | 34937 ft | 540 kts | 41° |
| 2026-04-30 14:02 | 40.86022 | -79.70363 | 34933 ft | 540 kts | 41° |
| 2026-04-30 14:02 | 40.91284 | -79.63272 | 34936 ft | 540 kts | 42° |
| 2026-04-30 14:03 | 40.96550 | -79.56156 | 34921 ft | 540 kts | 42° |
| 2026-04-30 14:03 | 41.01814 | -79.49026 | 34925 ft | 540 kts | 42° |
| 2026-04-30 14:04 | 41.07029 | -79.41944 | 34909 ft | 540 kts | 42° |
| 2026-04-30 14:04 | 41.12292 | -79.34785 | 34916 ft | 541 kts | 42° |
| 2026-04-30 14:05 | 41.17545 | -79.27617 | 34907 ft | 541 kts | 42° |
| 2026-04-30 14:05 | 41.22767 | -79.20473 | 34901 ft | 541 kts | 43° |
| 2026-04-30 14:06 | 41.30637 | -79.09676 | 34893 ft | 541 kts | 43° |
| 2026-04-30 14:07 | 41.38468 | -78.98893 | 34895 ft | 542 kts | 43° |
| 2026-04-30 14:08 | 41.46311 | -78.88053 | 34908 ft | 543 kts | 43° |
| 2026-04-30 14:08 | 41.54183 | -78.77132 | 34898 ft | 542 kts | 43° |
| 2026-04-30 14:09 | 41.59383 | -78.69895 | 34895 ft | 542 kts | 43° |
| 2026-04-30 14:10 | 41.67234 | -78.58938 | 34890 ft | 543 kts | 44° |
| 2026-04-30 14:10 | 41.72425 | -78.51669 | 34891 ft | 543 kts | 44° |
| 2026-04-30 14:11 | 41.77659 | -78.44321 | 34891 ft | 543 kts | 44° |
| 2026-04-30 14:11 | 41.82866 | -78.36993 | 34911 ft | 543 kts | 44° |
| 2026-04-30 14:12 | 41.88067 | -78.29656 | 34904 ft | 542 kts | 44° |
| 2026-04-30 14:12 | 41.93234 | -78.22346 | 34901 ft | 541 kts | 44° |
| 2026-04-30 14:13 | 41.98427 | -78.14983 | 34891 ft | 541 kts | 44° |
| 2026-04-30 14:13 | 42.03573 | -78.07667 | 34890 ft | 541 kts | 44° |
| 2026-04-30 14:14 | 42.08539 | -78.00044 | 34893 ft | 543 kts | 54° |
| 2026-04-30 14:14 | 42.12248 | -77.91150 | 34882 ft | 544 kts | 62° |
| 2026-04-30 14:15 | 42.15585 | -77.82026 | 34889 ft | 546 kts | 64° |
| 2026-04-30 14:15 | 42.18891 | -77.72778 | 34910 ft | 546 kts | 64° |
| 2026-04-30 14:16 | 42.22199 | -77.63559 | 34906 ft | 546 kts | 64° |
| 2026-04-30 14:16 | 42.25521 | -77.54326 | 34900 ft | 546 kts | 63° |
| 2026-04-30 14:17 | 42.28821 | -77.45140 | 34901 ft | 546 kts | 64° |
| 2026-04-30 14:17 | 42.32142 | -77.35864 | 34914 ft | 546 kts | 64° |
| 2026-04-30 14:18 | 42.35411 | -77.26704 | 34900 ft | 544 kts | 64° |
| 2026-04-30 14:18 | 42.40320 | -77.12886 | 34900 ft | 543 kts | 64° |
| 2026-04-30 14:19 | 42.44113 | -77.04059 | 34897 ft | 541 kts | 50° |
| 2026-04-30 14:19 | 42.46688 | -77.00366 | 34898 ft | 537 kts | 38° |
| 2026-04-30 14:20 | 42.52635 | -76.94249 | 34901 ft | 535 kts | 32° |
| 2026-04-30 14:20 | 42.61801 | -76.85669 | 34871 ft | 535 kts | 32° |
| 2026-04-30 14:21 | 42.67952 | -76.79892 | 34906 ft | 536 kts | 32° |
| 2026-04-30 14:22 | 42.77093 | -76.71202 | 34899 ft | 536 kts | 33° |
| 2026-04-30 14:22 | 42.85230 | -76.63420 | 34900 ft | 536 kts | 33° |
| 2026-04-30 14:23 | 42.98418 | -76.50761 | 34892 ft | 536 kts | 33° |
| 2026-04-30 14:24 | 43.06564 | -76.42911 | 34891 ft | 536 kts | 33° |
| 2026-04-30 14:25 | 43.18703 | -76.31161 | 34891 ft | 536 kts | 33° |
| 2026-04-30 14:26 | 43.27814 | -76.22281 | 34877 ft | 535 kts | 36° |
| 2026-04-30 14:26 | 43.33018 | -76.14980 | 34891 ft | 536 kts | 56° |
| 2026-04-30 14:27 | 43.34875 | -76.10600 | 34884 ft | 535 kts | 64° |
| 2026-04-30 14:27 | 43.38044 | -76.01391 | 34877 ft | 534 kts | 67° |
| 2026-04-30 14:28 | 43.42544 | -75.87327 | 34856 ft | 534 kts | 68° |
| 2026-04-30 14:28 | 43.45532 | -75.78034 | 34834 ft | 534 kts | 67° |
| 2026-04-30 14:29 | 43.51575 | -75.59330 | 34862 ft | 533 kts | 68° |
| 2026-04-30 14:31 | 43.59048 | -75.36026 | 34837 ft | 531 kts | 68° |
| 2026-04-30 14:31 | 43.63487 | -75.22082 | 34834 ft | 530 kts | 68° |
| 2026-04-30 14:32 | 43.67917 | -75.08096 | 34828 ft | 529 kts | 68° |
| 2026-04-30 14:33 | 43.70838 | -74.98827 | 34817 ft | 527 kts | 68° |
| 2026-04-30 14:33 | 43.75224 | -74.84853 | 34821 ft | 527 kts | 68° |
| 2026-04-30 14:34 | 43.78120 | -74.75587 | 34822 ft | 526 kts | 68° |
| 2026-04-30 14:34 | 43.81022 | -74.66264 | 34816 ft | 527 kts | 68° |
| 2026-04-30 14:35 | 43.85344 | -74.52321 | 34812 ft | 526 kts | 68° |
| 2026-04-30 14:36 | 43.88225 | -74.42980 | 34805 ft | 526 kts | 68° |
| 2026-04-30 14:36 | 43.91103 | -74.33623 | 34795 ft | 526 kts | 68° |
| 2026-04-30 14:37 | 43.93948 | -74.24340 | 34802 ft | 523 kts | 69° |
| 2026-04-30 14:37 | 43.96788 | -74.15036 | 34789 ft | 522 kts | 69° |
| 2026-04-30 14:38 | 43.99625 | -74.05705 | 34794 ft | 522 kts | 69° |
| 2026-04-30 14:38 | 44.02427 | -73.96458 | 34780 ft | 522 kts | 69° |
| 2026-04-30 14:39 | 44.05247 | -73.87123 | 34789 ft | 522 kts | 69° |
| 2026-04-30 14:39 | 44.08046 | -73.77821 | 34767 ft | 520 kts | 69° |
| 2026-04-30 14:40 | 44.12201 | -73.63946 | 34785 ft | 520 kts | 69° |
| 2026-04-30 14:40 | 44.14976 | -73.54639 | 34783 ft | 520 kts | 69° |
| 2026-04-30 14:41 | 44.17729 | -73.45369 | 34768 ft | 519 kts | 70° |
| 2026-04-30 14:41 | 44.20482 | -73.36069 | 34786 ft | 518 kts | 70° |
| 2026-04-30 14:42 | 44.23208 | -73.26825 | 34789 ft | 517 kts | 70° |
| 2026-04-30 14:42 | 44.25941 | -73.17523 | 34796 ft | 517 kts | 70° |
| 2026-04-30 14:43 | 44.28649 | -73.08269 | 34797 ft | 517 kts | 70° |
| 2026-04-30 14:43 | 44.31367 | -72.98953 | 34809 ft | 517 kts | 70° |
| 2026-04-30 14:44 | 44.34074 | -72.89638 | 34799 ft | 516 kts | 71° |
| 2026-04-30 14:44 | 44.36769 | -72.80322 | 34805 ft | 516 kts | 71° |
| 2026-04-30 14:45 | 44.39443 | -72.71052 | 34798 ft | 516 kts | 71° |
| 2026-04-30 14:45 | 44.42119 | -72.61741 | 34797 ft | 516 kts | 71° |
| 2026-04-30 14:46 | 44.44773 | -72.52469 | 34796 ft | 515 kts | 71° |
| 2026-04-30 14:46 | 44.47434 | -72.43140 | 34797 ft | 515 kts | 71° |
| 2026-04-30 14:47 | 44.50085 | -72.33811 | 34796 ft | 515 kts | 71° |
| 2026-04-30 14:47 | 44.52730 | -72.24465 | 34799 ft | 515 kts | 71° |
| 2026-04-30 14:48 | 44.55353 | -72.15160 | 34814 ft | 515 kts | 71° |
| 2026-04-30 14:48 | 44.57984 | -72.05794 | 34812 ft | 514 kts | 72° |
| 2026-04-30 14:49 | 44.60584 | -71.96505 | 34807 ft | 514 kts | 72° |
| 2026-04-30 14:49 | 44.63192 | -71.87151 | 34811 ft | 513 kts | 72° |
| 2026-04-30 14:50 | 44.67066 | -71.73185 | 34811 ft | 512 kts | 72° |
| 2026-04-30 14:51 | 44.70933 | -71.59166 | 34819 ft | 511 kts | 72° |
| 2026-04-30 14:52 | 44.74760 | -71.45213 | 34832 ft | 511 kts | 73° |
| 2026-04-30 14:52 | 44.78578 | -71.31204 | 34839 ft | 511 kts | 73° |
| 2026-04-30 14:53 | 44.82366 | -71.17236 | 34836 ft | 509 kts | 73° |
| 2026-04-30 14:54 | 44.85473 | -71.08246 | 35256 ft | 512 kts | 58° |
| 2026-04-30 14:54 | 44.89614 | -71.00082 | 35854 ft | 511 kts | 56° |
| 2026-04-30 14:55 | 44.93878 | -70.92129 | 36358 ft | 510 kts | 55° |
| 2026-04-30 14:55 | 44.96027 | -70.88148 | 36583 ft | 510 kts | 56° |
| 2026-04-30 14:55 | 45.00329 | -70.80128 | 36853 ft | 514 kts | 56° |
| 2026-04-30 14:56 | 45.04619 | -70.72070 | 36849 ft | 515 kts | 56° |
| 2026-04-30 14:57 | 45.11075 | -70.59877 | 36856 ft | 515 kts | 56° |
| 2026-04-30 14:58 | 45.19624 | -70.43651 | 36857 ft | 515 kts | 56° |
| 2026-04-30 14:58 | 45.26037 | -70.31418 | 36854 ft | 515 kts | 56° |
| 2026-04-30 15:00 | 45.36701 | -70.10960 | 36862 ft | 515 kts | 57° |
| 2026-04-30 15:01 | 45.45197 | -69.94555 | 36864 ft | 517 kts | 57° |
| 2026-04-30 15:01 | 45.51586 | -69.82156 | 36865 ft | 517 kts | 57° |
| 2026-04-30 15:02 | 45.55832 | -69.73886 | 36865 ft | 517 kts | 57° |
| 2026-04-30 15:03 | 45.66450 | -69.53100 | 36873 ft | 518 kts | 57° |
| 2026-04-30 15:04 | 45.77034 | -69.32225 | 36886 ft | 519 kts | 57° |
| 2026-04-30 15:06 | 45.87572 | -69.11286 | 36916 ft | 519 kts | 57° |
| 2026-04-30 15:07 | 45.95996 | -68.94432 | 36944 ft | 518 kts | 57° |
| 2026-04-30 15:08 | 46.04315 | -68.77694 | 36952 ft | 518 kts | 57° |
| 2026-04-30 15:09 | 46.14743 | -68.56570 | 36982 ft | 517 kts | 57° |
| 2026-04-30 15:10 | 46.23033 | -68.39663 | 37002 ft | 515 kts | 57° |
| 2026-04-30 15:11 | 46.35376 | -68.14294 | 36998 ft | 513 kts | 57° |
| 2026-04-30 15:13 | 46.44918 | -67.94531 | 36984 ft | 513 kts | 57° |
| 2026-04-30 15:14 | 46.59162 | -67.64759 | 36963 ft | 513 kts | 57° |
| 2026-04-30 15:17 | 46.77361 | -67.26255 | 36990 ft | 513 kts | 57° |
| 2026-04-30 15:18 | 46.87666 | -67.05105 | 36978 ft | 513 kts | 46° |
| 2026-04-30 15:19 | 46.95840 | -66.95022 | 36990 ft | 514 kts | 38° |
| 2026-04-30 17:39 | 57.05011 | -38.53209 | 39236 ft | 537 kts | 87° |
| 2026-04-30 17:42 | 57.06751 | -37.84803 | 39248 ft | 537 kts | 88° |
| 2026-04-30 17:43 | 57.07482 | -37.50537 | 39243 ft | 537 kts | 88° |
| 2026-04-30 17:44 | 57.08235 | -37.09412 | 39235 ft | 537 kts | 88° |
| 2026-04-30 17:47 | 57.09113 | -36.47650 | 39254 ft | 538 kts | 88° |
| 2026-04-30 17:48 | 57.09586 | -35.99603 | 39254 ft | 536 kts | 89° |
| 2026-04-30 17:50 | 57.09901 | -35.44766 | 39242 ft | 536 kts | 89° |
| 2026-04-30 17:52 | 57.09980 | -35.03757 | 39257 ft | 534 kts | 89° |
| 2026-04-30 17:54 | 57.09848 | -34.42348 | 39247 ft | 533 kts | 90° |
| 2026-04-30 17:56 | 57.09482 | -33.88130 | 39259 ft | 530 kts | 90° |
| 2026-04-30 17:58 | 57.09054 | -33.47490 | 39262 ft | 530 kts | 91° |
| 2026-04-30 18:00 | 57.08279 | -32.93340 | 39259 ft | 529 kts | 91° |
| 2026-04-30 18:01 | 57.07678 | -32.59598 | 39262 ft | 528 kts | 91° |
| 2026-04-30 18:02 | 57.06837 | -32.19144 | 39266 ft | 527 kts | 91° |
| 2026-04-30 18:04 | 57.05869 | -31.78784 | 39255 ft | 527 kts | 92° |
| 2026-04-30 18:06 | 57.04374 | -31.24955 | 39267 ft | 527 kts | 92° |
| 2026-04-30 18:08 | 57.02880 | -30.77966 | 39277 ft | 527 kts | 92° |
| 2026-04-30 18:10 | 57.00954 | -30.24272 | 39281 ft | 526 kts | 92° |
| 2026-04-30 18:11 | 56.98751 | -29.77482 | 39275 ft | 527 kts | 95° |
| 2026-04-30 18:13 | 56.96644 | -29.44201 | 39294 ft | 526 kts | 95° |
| 2026-04-30 18:14 | 56.94527 | -29.10989 | 39293 ft | 524 kts | 95° |
| 2026-04-30 18:15 | 56.91876 | -28.71319 | 39304 ft | 523 kts | 96° |
| 2026-04-30 18:16 | 56.90044 | -28.44976 | 39288 ft | 522 kts | 96° |
| 2026-04-30 18:17 | 56.89105 | -28.31794 | 39287 ft | 520 kts | 96° |
| 2026-04-30 18:18 | 56.87677 | -28.12104 | 39294 ft | 519 kts | 96° |
| 2026-04-30 18:18 | 56.86717 | -27.99106 | 39298 ft | 519 kts | 96° |
| 2026-04-30 18:19 | 56.85737 | -27.86032 | 39294 ft | 518 kts | 96° |
| 2026-04-30 18:19 | 56.84742 | -27.72963 | 39297 ft | 518 kts | 96° |
| 2026-04-30 18:20 | 56.83741 | -27.59985 | 39299 ft | 518 kts | 96° |
| 2026-04-30 18:20 | 56.82722 | -27.46953 | 39289 ft | 518 kts | 97° |
| 2026-04-30 18:21 | 56.81687 | -27.33927 | 39296 ft | 516 kts | 96° |
| 2026-04-30 18:21 | 56.80644 | -27.20941 | 39306 ft | 516 kts | 97° |
| 2026-04-30 18:22 | 56.79589 | -27.07985 | 39297 ft | 516 kts | 97° |
| 2026-04-30 18:22 | 56.77987 | -26.88641 | 39307 ft | 516 kts | 97° |
| 2026-04-30 18:23 | 56.77082 | -26.77873 | 39302 ft | 516 kts | 97° |
| 2026-04-30 18:23 | 56.75801 | -26.62836 | 39305 ft | 516 kts | 97° |
| 2026-04-30 18:24 | 56.74311 | -26.45617 | 39305 ft | 514 kts | 97° |
| 2026-04-30 18:25 | 56.73183 | -26.32770 | 39302 ft | 511 kts | 97° |
| 2026-04-30 18:25 | 56.71480 | -26.13668 | 39314 ft | 511 kts | 97° |
| 2026-04-30 18:26 | 56.69747 | -25.94556 | 39310 ft | 511 kts | 98° |
| 2026-04-30 18:27 | 56.67978 | -25.75409 | 39314 ft | 510 kts | 98° |
| 2026-04-30 18:28 | 56.66183 | -25.56303 | 39303 ft | 510 kts | 98° |
| 2026-04-30 18:28 | 56.64373 | -25.37388 | 39317 ft | 506 kts | 98° |
| 2026-04-30 18:29 | 56.61915 | -25.12158 | 39319 ft | 506 kts | 98° |
| 2026-04-30 18:30 | 56.59415 | -24.87060 | 39319 ft | 506 kts | 98° |
| 2026-04-30 18:31 | 56.57508 | -24.68264 | 39314 ft | 506 kts | 99° |
| 2026-04-30 18:32 | 56.55564 | -24.49429 | 39316 ft | 504 kts | 98° |
| 2026-04-30 18:33 | 56.53612 | -24.30781 | 39317 ft | 503 kts | 99° |
| 2026-04-30 18:33 | 56.51620 | -24.12048 | 39317 ft | 503 kts | 99° |
| 2026-04-30 18:34 | 56.49610 | -23.93427 | 39316 ft | 503 kts | 99° |
| 2026-04-30 18:35 | 56.48257 | -23.81048 | 39316 ft | 503 kts | 99° |
| 2026-04-30 18:35 | 56.46885 | -23.68609 | 39318 ft | 503 kts | 99° |
| 2026-04-30 18:36 | 56.44817 | -23.50093 | 39317 ft | 502 kts | 99° |
| 2026-04-30 18:37 | 56.42856 | -23.32785 | 39317 ft | 502 kts | 100° |
| 2026-04-30 18:37 | 56.41439 | -23.20409 | 39317 ft | 503 kts | 100° |
| 2026-04-30 18:38 | 56.40019 | -23.08129 | 39314 ft | 503 kts | 100° |
| 2026-04-30 18:38 | 56.38576 | -22.95769 | 39315 ft | 502 kts | 100° |
| 2026-04-30 18:39 | 56.37130 | -22.83490 | 39311 ft | 501 kts | 101° |
| 2026-04-30 18:39 | 56.35671 | -22.71221 | 39316 ft | 499 kts | 100° |
| 2026-04-30 18:40 | 56.34205 | -22.59000 | 39311 ft | 497 kts | 101° |
| 2026-04-30 18:40 | 56.32731 | -22.46823 | 39311 ft | 497 kts | 101° |
| 2026-04-30 18:41 | 56.31252 | -22.34709 | 39314 ft | 497 kts | 101° |
| 2026-04-30 18:41 | 56.29754 | -22.22541 | 39311 ft | 497 kts | 101° |
| 2026-04-30 18:42 | 56.28254 | -22.10466 | 39311 ft | 497 kts | 101° |
| 2026-04-30 18:42 | 56.25968 | -21.92267 | 39309 ft | 497 kts | 101° |
| 2026-04-30 18:45 | 56.17352 | -21.25668 | 39301 ft | 499 kts | 102° |
| 2026-04-30 18:46 | 56.15738 | -21.13523 | 39302 ft | 500 kts | 102° |
| 2026-04-30 18:46 | 56.14120 | -21.01453 | 39303 ft | 500 kts | 102° |
| 2026-04-30 18:47 | 56.12483 | -20.89337 | 39301 ft | 501 kts | 102° |
| 2026-04-30 18:47 | 56.10821 | -20.77127 | 39298 ft | 504 kts | 102° |
| 2026-04-30 18:48 | 56.09153 | -20.64975 | 39290 ft | 504 kts | 102° |
| 2026-04-30 18:48 | 56.07460 | -20.52745 | 39292 ft | 504 kts | 102° |
| 2026-04-30 18:49 | 56.05767 | -20.40607 | 39295 ft | 504 kts | 102° |
| 2026-04-30 18:49 | 56.04053 | -20.28415 | 39289 ft | 504 kts | 102° |
| 2026-04-30 18:50 | 56.02346 | -20.16366 | 39292 ft | 501 kts | 103° |
| 2026-04-30 18:50 | 56.00621 | -20.04293 | 39287 ft | 500 kts | 103° |
| 2026-04-30 18:51 | 55.98812 | -19.92323 | 39290 ft | 497 kts | 105° |
| 2026-04-30 18:51 | 55.96709 | -19.80638 | 39284 ft | 496 kts | 107° |
| 2026-04-30 18:52 | 55.94548 | -19.68920 | 39281 ft | 496 kts | 106° |
| 2026-04-30 18:52 | 55.92431 | -19.57245 | 39281 ft | 496 kts | 106° |
| 2026-04-30 18:53 | 55.90316 | -19.45480 | 39277 ft | 498 kts | 107° |
| 2026-04-30 18:53 | 55.88193 | -19.33727 | 39275 ft | 498 kts | 106° |
| 2026-04-30 18:54 | 55.86066 | -19.22033 | 39270 ft | 498 kts | 107° |
| 2026-04-30 18:54 | 55.83912 | -19.10274 | 39271 ft | 500 kts | 107° |
| 2026-04-30 18:55 | 55.81758 | -18.98582 | 39270 ft | 499 kts | 107° |
| 2026-04-30 18:55 | 55.78481 | -18.80941 | 39267 ft | 500 kts | 108° |
| 2026-04-30 18:56 | 55.75193 | -18.63407 | 39262 ft | 500 kts | 108° |
| 2026-04-30 18:57 | 55.71881 | -18.45906 | 39256 ft | 501 kts | 108° |
| 2026-04-30 18:57 | 55.69645 | -18.34183 | 39253 ft | 499 kts | 108° |
| 2026-04-30 18:58 | 55.66299 | -18.16776 | 39247 ft | 499 kts | 108° |
| 2026-04-30 18:59 | 55.62904 | -17.99266 | 39246 ft | 501 kts | 108° |
| 2026-04-30 19:00 | 55.58347 | -17.76005 | 39239 ft | 501 kts | 109° |
| 2026-04-30 19:01 | 55.53740 | -17.52775 | 39226 ft | 499 kts | 109° |
| 2026-04-30 19:02 | 55.50277 | -17.35498 | 39221 ft | 499 kts | 109° |
| 2026-04-30 19:03 | 55.45629 | -17.12538 | 39217 ft | 499 kts | 109° |
| 2026-04-30 19:04 | 55.40917 | -16.89523 | 39211 ft | 499 kts | 109° |
| 2026-04-30 19:05 | 55.36221 | -16.66859 | 39203 ft | 491 kts | 109° |
| 2026-04-30 19:06 | 55.31495 | -16.44296 | 39196 ft | 491 kts | 109° |
| 2026-04-30 19:06 | 55.27935 | -16.27468 | 39183 ft | 491 kts | 110° |
| 2026-04-30 19:07 | 55.24357 | -16.10692 | 39183 ft | 490 kts | 110° |
| 2026-04-30 19:08 | 55.19584 | -15.88527 | 39178 ft | 484 kts | 110° |
| 2026-04-30 19:09 | 55.15987 | -15.71979 | 39171 ft | 484 kts | 110° |
| 2026-04-30 19:09 | 55.13590 | -15.61024 | 39170 ft | 484 kts | 111° |
| 2026-04-30 19:10 | 55.08746 | -15.39057 | 39162 ft | 483 kts | 111° |
| 2026-04-30 19:11 | 55.05102 | -15.22688 | 39159 ft | 483 kts | 111° |
| 2026-04-30 19:12 | 55.03067 | -15.13602 | 39154 ft | 483 kts | 111° |
| 2026-04-30 19:12 | 55.00801 | -15.02568 | 39155 ft | 483 kts | 104° |
| 2026-04-30 19:13 | 55.00025 | -14.90950 | 39151 ft | 484 kts | 91° |
| 2026-04-30 19:13 | 54.99992 | -14.79262 | 39148 ft | 485 kts | 90° |
| 2026-04-30 19:14 | 55.00062 | -14.67490 | 39139 ft | 485 kts | 90° |
| 2026-04-30 19:14 | 55.00106 | -14.55704 | 39135 ft | 485 kts | 90° |
| 2026-04-30 19:15 | 55.00114 | -14.44017 | 39135 ft | 485 kts | 91° |
| 2026-04-30 19:15 | 55.00093 | -14.26342 | 39132 ft | 484 kts | 92° |
| 2026-04-30 19:16 | 55.00063 | -14.14650 | 39132 ft | 484 kts | 92° |
| 2026-04-30 19:17 | 54.99541 | -13.97153 | 39131 ft | 481 kts | 102° |
| 2026-04-30 19:17 | 54.97422 | -13.80146 | 39123 ft | 478 kts | 104° |
| 2026-04-30 19:18 | 54.95110 | -13.63237 | 39124 ft | 477 kts | 105° |
| 2026-04-30 19:19 | 54.93572 | -13.51979 | 39121 ft | 477 kts | 105° |
| 2026-04-30 19:19 | 54.91269 | -13.35162 | 39119 ft | 477 kts | 105° |
| 2026-04-30 19:20 | 54.89717 | -13.23922 | 39119 ft | 477 kts | 105° |
| 2026-04-30 19:21 | 54.87380 | -13.07161 | 39115 ft | 477 kts | 105° |
| 2026-04-30 19:22 | 54.84216 | -12.84769 | 39113 ft | 478 kts | 105° |
| 2026-04-30 19:23 | 54.79414 | -12.51379 | 39103 ft | 476 kts | 106° |
| 2026-04-30 19:24 | 54.76971 | -12.34669 | 39108 ft | 477 kts | 106° |
| 2026-04-30 19:25 | 54.72861 | -12.06943 | 39099 ft | 476 kts | 107° |
| 2026-04-30 19:26 | 54.69526 | -11.84786 | 39102 ft | 477 kts | 107° |
| 2026-04-30 19:27 | 54.66987 | -11.68125 | 39097 ft | 477 kts | 107° |
| 2026-04-30 19:28 | 54.64429 | -11.51509 | 39093 ft | 476 kts | 107° |
| 2026-04-30 19:29 | 54.60990 | -11.29433 | 39091 ft | 477 kts | 107° |
| 2026-04-30 19:30 | 54.57517 | -11.07433 | 39093 ft | 476 kts | 108° |
| 2026-04-30 19:31 | 54.54003 | -10.85458 | 39091 ft | 476 kts | 108° |
| 2026-04-30 19:31 | 54.51329 | -10.68922 | 39095 ft | 476 kts | 108° |
| 2026-04-30 19:32 | 54.49549 | -10.58006 | 39086 ft | 476 kts | 108° |
| 2026-04-30 19:32 | 54.47747 | -10.47031 | 39080 ft | 476 kts | 108° |
| 2026-04-30 19:33 | 54.45937 | -10.36071 | 39087 ft | 476 kts | 108° |
| 2026-04-30 19:33 | 54.44126 | -10.25178 | 39089 ft | 476 kts | 108° |
| 2026-04-30 19:34 | 54.42297 | -10.14241 | 39081 ft | 477 kts | 109° |
| 2026-04-30 19:35 | 54.39537 | -9.97866 | 39086 ft | 477 kts | 109° |
| 2026-04-30 19:35 | 54.37678 | -9.86926 | 39087 ft | 477 kts | 109° |
| 2026-04-30 19:36 | 54.35810 | -9.76000 | 39082 ft | 477 kts | 109° |
| 2026-04-30 19:36 | 54.33005 | -9.59711 | 39072 ft | 476 kts | 109° |
| 2026-04-30 19:37 | 54.31126 | -9.48892 | 39083 ft | 476 kts | 109° |
| 2026-04-30 19:37 | 54.29217 | -9.37963 | 39091 ft | 476 kts | 109° |
| 2026-04-30 19:38 | 54.27320 | -9.27164 | 39088 ft | 476 kts | 110° |
| 2026-04-30 19:38 | 54.25402 | -9.16317 | 39095 ft | 476 kts | 110° |
| 2026-04-30 19:39 | 54.23474 | -9.05472 | 39095 ft | 476 kts | 110° |
| 2026-04-30 19:39 | 54.21546 | -8.94699 | 39097 ft | 476 kts | 110° |
| 2026-04-30 19:40 | 54.19597 | -8.83871 | 39101 ft | 477 kts | 110° |
| 2026-04-30 19:40 | 54.17638 | -8.73049 | 39102 ft | 476 kts | 110° |
| 2026-04-30 19:41 | 54.15672 | -8.62249 | 39102 ft | 475 kts | 110° |
| 2026-04-30 19:41 | 54.13709 | -8.51529 | 39090 ft | 475 kts | 110° |
| 2026-04-30 19:42 | 54.11719 | -8.40733 | 39095 ft | 476 kts | 110° |
| 2026-04-30 19:42 | 54.09734 | -8.30020 | 39095 ft | 477 kts | 110° |
| 2026-04-30 19:43 | 54.07728 | -8.19250 | 39099 ft | 477 kts | 110° |
| 2026-04-30 19:44 | 54.04695 | -8.03095 | 39097 ft | 477 kts | 110° |
| 2026-04-30 19:44 | 54.02678 | -7.92424 | 39099 ft | 477 kts | 110° |
| 2026-04-30 19:45 | 54.00630 | -7.81655 | 39087 ft | 477 kts | 110° |
| 2026-04-30 19:45 | 53.98587 | -7.70975 | 39093 ft | 477 kts | 110° |
| 2026-04-30 19:46 | 53.96523 | -7.60238 | 39103 ft | 476 kts | 110° |
| 2026-04-30 19:46 | 53.94466 | -7.49597 | 39102 ft | 476 kts | 111° |
| 2026-04-30 19:47 | 53.92386 | -7.38897 | 39107 ft | 476 kts | 111° |
| 2026-04-30 19:47 | 53.90308 | -7.28271 | 39105 ft | 477 kts | 111° |
| 2026-04-30 19:48 | 53.88208 | -7.17587 | 39105 ft | 477 kts | 111° |
| 2026-04-30 19:48 | 53.86100 | -7.06922 | 39111 ft | 477 kts | 111° |
| 2026-04-30 19:49 | 53.83980 | -6.96258 | 39108 ft | 477 kts | 111° |
| 2026-04-30 19:49 | 53.80799 | -6.80364 | 39114 ft | 477 kts | 111° |
| 2026-04-30 19:50 | 53.78656 | -6.69728 | 39111 ft | 476 kts | 111° |
| 2026-04-30 19:50 | 53.76517 | -6.59165 | 39117 ft | 476 kts | 111° |
| 2026-04-30 19:51 | 53.74360 | -6.48578 | 39113 ft | 476 kts | 111° |
| 2026-04-30 19:51 | 53.72193 | -6.37992 | 39119 ft | 476 kts | 111° |
| 2026-04-30 19:52 | 53.70031 | -6.27491 | 39119 ft | 476 kts | 111° |
| 2026-04-30 19:52 | 53.67850 | -6.16948 | 39116 ft | 475 kts | 112° |
| 2026-04-30 19:53 | 53.65663 | -6.06433 | 39117 ft | 474 kts | 112° |
| 2026-04-30 19:53 | 53.63479 | -5.95993 | 39115 ft | 474 kts | 112° |
| 2026-04-30 19:54 | 53.61273 | -5.85498 | 39117 ft | 474 kts | 112° |
| 2026-04-30 19:54 | 53.59067 | -5.75057 | 39119 ft | 474 kts | 112° |
| 2026-04-30 19:55 | 53.56849 | -5.64612 | 39118 ft | 473 kts | 112° |
| 2026-04-30 19:55 | 53.54663 | -5.54148 | 39118 ft | 474 kts | 109° |
| 2026-04-30 19:56 | 53.53577 | -5.43209 | 39120 ft | 479 kts | 97° |
| 2026-04-30 19:56 | 53.53222 | -5.32063 | 39119 ft | 480 kts | 95° |
| 2026-04-30 19:57 | 53.52973 | -5.20824 | 39122 ft | 480 kts | 95° |
| 2026-04-30 19:57 | 53.52702 | -5.09567 | 39121 ft | 481 kts | 96° |
| 2026-04-30 19:58 | 53.52355 | -4.98389 | 39119 ft | 481 kts | 96° |
| 2026-04-30 19:58 | 53.51976 | -4.87161 | 39113 ft | 481 kts | 96° |
| 2026-04-30 19:59 | 53.51601 | -4.75936 | 39116 ft | 481 kts | 96° |
| 2026-04-30 20:00 | 53.51024 | -4.59153 | 39120 ft | 481 kts | 96° |
| 2026-04-30 20:00 | 53.50694 | -4.49826 | 39129 ft | 480 kts | 96° |
| 2026-04-30 20:01 | 53.50082 | -4.33006 | 39129 ft | 480 kts | 96° |
| 2026-04-30 20:01 | 53.49661 | -4.21801 | 39129 ft | 480 kts | 97° |
| 2026-04-30 20:02 | 53.49012 | -4.05035 | 39135 ft | 479 kts | 97° |
| 2026-04-30 20:03 | 53.48088 | -3.94014 | 39138 ft | 473 kts | 109° |
| 2026-04-30 20:03 | 53.47153 | -3.88796 | 39146 ft | 472 kts | 110° |
| 2026-04-30 20:03 | 53.45046 | -3.78333 | 39146 ft | 471 kts | 112° |
| 2026-04-30 20:04 | 53.42853 | -3.67941 | 39154 ft | 472 kts | 112° |
| 2026-04-30 20:05 | 53.39065 | -3.52857 | 39145 ft | 468 kts | 117° |
| 2026-04-30 20:05 | 53.34822 | -3.38109 | 39159 ft | 468 kts | 118° |
| 2026-04-30 20:06 | 53.31990 | -3.28365 | 39164 ft | 467 kts | 118° |
| 2026-04-30 20:06 | 53.29140 | -3.18586 | 39159 ft | 467 kts | 118° |
| 2026-04-30 20:07 | 53.26284 | -3.08809 | 39155 ft | 468 kts | 118° |
| 2026-04-30 20:08 | 53.21997 | -2.94206 | 39153 ft | 468 kts | 118° |
| 2026-04-30 20:08 | 53.19120 | -2.84451 | 39149 ft | 468 kts | 118° |
| 2026-04-30 20:08 | 53.17677 | -2.79573 | 38985 ft | 466 kts | 118° |
| 2026-04-30 20:09 | 53.16262 | -2.74797 | 38737 ft | 464 kts | 118° |
| 2026-04-30 20:09 | 53.14833 | -2.69987 | 38446 ft | 463 kts | 118° |
| 2026-04-30 20:09 | 53.11962 | -2.60355 | 37899 ft | 464 kts | 119° |
| 2026-04-30 20:10 | 53.09079 | -2.50718 | 37326 ft | 464 kts | 119° |
| 2026-04-30 20:10 | 53.07637 | -2.45911 | 37087 ft | 463 kts | 119° |
| 2026-04-30 20:10 | 53.06216 | -2.41183 | 36821 ft | 463 kts | 119° |
| 2026-04-30 20:11 | 53.03082 | -2.31923 | 36031 ft | 452 kts | 131° |
| 2026-04-30 20:11 | 53.00865 | -2.28265 | 35411 ft | 445 kts | 145° |
| 2026-04-30 20:11 | 52.98350 | -2.25423 | 34876 ft | 440 kts | 149° |
| 2026-04-30 20:12 | 52.93217 | -2.20101 | 33926 ft | 429 kts | 149° |
| 2026-04-30 20:12 | 52.90694 | -2.17481 | 33435 ft | 423 kts | 149° |
| 2026-04-30 20:12 | 52.88214 | -2.14900 | 32970 ft | 418 kts | 149° |
| 2026-04-30 20:13 | 52.85797 | -2.12383 | 32527 ft | 412 kts | 149° |
| 2026-04-30 20:13 | 52.83376 | -2.09863 | 32081 ft | 407 kts | 149° |
| 2026-04-30 20:13 | 52.80983 | -2.07373 | 31642 ft | 402 kts | 149° |
| 2026-04-30 20:13 | 52.78630 | -2.04928 | 31207 ft | 397 kts | 149° |
| 2026-04-30 20:14 | 52.76306 | -2.02515 | 30786 ft | 392 kts | 149° |
| 2026-04-30 20:14 | 52.74012 | -2.00136 | 30335 ft | 387 kts | 149° |
| 2026-04-30 20:14 | 52.71769 | -1.97812 | 29908 ft | 381 kts | 149° |
| 2026-04-30 20:14 | 52.69540 | -1.95506 | 29497 ft | 375 kts | 149° |
| 2026-04-30 20:15 | 52.67338 | -1.93230 | 29097 ft | 369 kts | 149° |
| 2026-04-30 20:15 | 52.65165 | -1.90988 | 28674 ft | 368 kts | 149° |
| 2026-04-30 20:15 | 52.62997 | -1.88752 | 28271 ft | 366 kts | 149° |
| 2026-04-30 20:15 | 52.60841 | -1.86533 | 27870 ft | 364 kts | 149° |
| 2026-04-30 20:16 | 52.58724 | -1.84356 | 27461 ft | 362 kts | 149° |
| 2026-04-30 20:16 | 52.56594 | -1.82167 | 27170 ft | 359 kts | 149° |
| 2026-04-30 20:16 | 52.54472 | -1.79990 | 26690 ft | 358 kts | 149° |
| 2026-04-30 20:16 | 52.52332 | -1.77799 | 25789 ft | 367 kts | 149° |
| 2026-04-30 20:17 | 52.50184 | -1.75602 | 25235 ft | 367 kts | 149° |
| 2026-04-30 20:17 | 52.48029 | -1.73398 | 24850 ft | 361 kts | 149° |
| 2026-04-30 20:17 | 52.45912 | -1.71234 | 24490 ft | 355 kts | 149° |
| 2026-04-30 20:17 | 52.43832 | -1.69111 | 24127 ft | 350 kts | 149° |
| 2026-04-30 20:18 | 52.41777 | -1.67017 | 23762 ft | 345 kts | 149° |
| 2026-04-30 20:18 | 52.39756 | -1.64959 | 23373 ft | 339 kts | 149° |
| 2026-04-30 20:18 | 52.37767 | -1.62937 | 23027 ft | 335 kts | 149° |
| 2026-04-30 20:18 | 52.35804 | -1.60943 | 22622 ft | 335 kts | 149° |
| 2026-04-30 20:19 | 52.33814 | -1.58925 | 22198 ft | 340 kts | 149° |
| 2026-04-30 20:19 | 52.31748 | -1.56833 | 22112 ft | 353 kts | 149° |
| 2026-04-30 20:19 | 52.29673 | -1.54732 | 21677 ft | 355 kts | 149° |
| 2026-04-30 20:19 | 52.27571 | -1.52605 | 21261 ft | 353 kts | 149° |
| 2026-04-30 20:20 | 52.25484 | -1.50497 | 20889 ft | 352 kts | 149° |
| 2026-04-30 20:20 | 52.23404 | -1.48398 | 20522 ft | 350 kts | 149° |
| 2026-04-30 20:20 | 52.21379 | -1.46180 | 20148 ft | 350 kts | 143° |
| 2026-04-30 20:20 | 52.19489 | -1.43643 | 19805 ft | 350 kts | 140° |
| 2026-04-30 20:21 | 52.17666 | -1.41085 | 19455 ft | 349 kts | 140° |
| 2026-04-30 20:21 | 52.15828 | -1.38504 | 19087 ft | 348 kts | 140° |
| 2026-04-30 20:21 | 52.13992 | -1.35933 | 18744 ft | 347 kts | 140° |
| 2026-04-30 20:21 | 52.12158 | -1.33373 | 18377 ft | 346 kts | 140° |
| 2026-04-30 20:22 | 52.10348 | -1.30851 | 18004 ft | 344 kts | 140° |
| 2026-04-30 20:22 | 52.08529 | -1.28318 | 17649 ft | 343 kts | 140° |
| 2026-04-30 20:22 | 52.06720 | -1.25805 | 17291 ft | 341 kts | 140° |
| 2026-04-30 20:22 | 52.04920 | -1.23306 | 16940 ft | 339 kts | 140° |
| 2026-04-30 20:23 | 52.03129 | -1.20824 | 16592 ft | 337 kts | 140° |
| 2026-04-30 20:23 | 52.01369 | -1.18388 | 16231 ft | 335 kts | 140° |
| 2026-04-30 20:23 | 51.99576 | -1.15908 | 15873 ft | 333 kts | 141° |
| 2026-04-30 20:23 | 51.97839 | -1.13508 | 15554 ft | 331 kts | 141° |
| 2026-04-30 20:24 | 51.96084 | -1.11086 | 15216 ft | 330 kts | 141° |
| 2026-04-30 20:24 | 51.94341 | -1.08681 | 14808 ft | 328 kts | 141° |
| 2026-04-30 20:24 | 51.92607 | -1.06292 | 14454 ft | 325 kts | 141° |
| 2026-04-30 20:24 | 51.90878 | -1.03913 | 14204 ft | 324 kts | 141° |
| 2026-04-30 20:25 | 51.87464 | -0.99223 | 13285 ft | 322 kts | 141° |
| 2026-04-30 20:25 | 51.85785 | -0.96838 | 12853 ft | 320 kts | 136° |
| 2026-04-30 20:26 | 51.83493 | -0.90619 | 11826 ft | 322 kts | 118° |
| 2026-04-30 20:26 | 51.81568 | -0.84137 | 10928 ft | 317 kts | 118° |
| 2026-04-30 20:26 | 51.80613 | -0.80978 | 10529 ft | 316 kts | 118° |
| 2026-04-30 20:27 | 51.78558 | -0.74737 | 9637 ft | 311 kts | 130° |
| 2026-04-30 20:27 | 51.75080 | -0.71663 | 8776 ft | 277 kts | 172° |
| 2026-04-30 20:28 | 51.71423 | -0.71223 | 8192 ft | 245 kts | 175° |
| 2026-04-30 20:28 | 51.68128 | -0.70928 | 8186 ft | 235 kts | 175° |
| 2026-04-30 20:29 | 51.64858 | -0.70643 | 8186 ft | 235 kts | 175° |
| 2026-04-30 20:30 | 51.59963 | -0.70213 | 8183 ft | 235 kts | 175° |
| 2026-04-30 20:30 | 51.55656 | -0.72973 | 7500 ft | 245 kts | 241° |
| 2026-04-30 20:31 | 51.55418 | -0.81197 | 7200 ft | 251 kts | 270° |
| 2026-04-30 20:32 | 51.55739 | -0.89582 | 7130 ft | 248 kts | 270° |
| 2026-04-30 20:32 | 51.55947 | -0.95074 | 6404 ft | 247 kts | 270° |
| 2026-04-30 20:33 | 51.56055 | -0.97823 | 6079 ft | 245 kts | 270° |
| 2026-04-30 20:33 | 51.56287 | -1.03266 | 5355 ft | 244 kts | 270° |
| 2026-04-30 20:33 | 51.56404 | -1.05980 | 5061 ft | 242 kts | 270° |
| 2026-04-30 20:34 | 51.55270 | -1.10647 | 4992 ft | 227 kts | 214° |
| 2026-04-30 20:34 | 51.52359 | -1.11093 | 4990 ft | 214 kts | 152° |
| 2026-04-30 20:35 | 51.51312 | -1.09565 | 4998 ft | 196 kts | 129° |
| 2026-04-30 20:35 | 51.50556 | -1.07826 | 4991 ft | 185 kts | 126° |
| 2026-04-30 20:35 | 51.49168 | -1.04386 | 4993 ft | 183 kts | 126° |
| 2026-04-30 20:36 | 51.48480 | -1.02652 | 4990 ft | 184 kts | 124° |
| 2026-04-30 20:36 | 51.47974 | -1.00756 | 4990 ft | 186 kts | 110° |
| 2026-04-30 20:36 | 51.47632 | -0.96826 | 4998 ft | 170 kts | 96° |
| 2026-04-30 20:37 | 51.47611 | -0.94937 | 4987 ft | 168 kts | 95° |
| 2026-04-30 20:37 | 51.47617 | -0.93052 | 5002 ft | 169 kts | 94° |
| 2026-04-30 20:37 | 51.47631 | -0.91160 | 5002 ft | 170 kts | 94° |
| 2026-04-30 20:37 | 51.47632 | -0.89261 | 5001 ft | 169 kts | 95° |
| 2026-04-30 20:38 | 51.47616 | -0.87371 | 4889 ft | 169 kts | 95° |
| 2026-04-30 20:38 | 51.47616 | -0.85483 | 4677 ft | 169 kts | 95° |
| 2026-04-30 20:38 | 51.47625 | -0.83608 | 4420 ft | 167 kts | 95° |
| 2026-04-30 20:39 | 51.47637 | -0.79920 | 3921 ft | 163 kts | 96° |
| 2026-04-30 20:39 | 51.47643 | -0.78130 | 3703 ft | 158 kts | 96° |
| 2026-04-30 20:39 | 51.47649 | -0.76390 | 3501 ft | 154 kts | 97° |
| 2026-04-30 20:40 | 51.47660 | -0.73005 | 3092 ft | 151 kts | 97° |
| 2026-04-30 20:40 | 51.47666 | -0.71322 | 2890 ft | 150 kts | 98° |
| 2026-04-30 20:40 | 51.47673 | -0.69646 | 2700 ft | 149 kts | 97° |
| 2026-04-30 20:41 | 51.47685 | -0.66356 | 2297 ft | 147 kts | 97° |
| 2026-04-30 20:41 | 51.47690 | -0.64722 | 2105 ft | 146 kts | 98° |
| 2026-04-30 20:41 | 51.47695 | -0.63081 | 1909 ft | 145 kts | 97° |
| 2026-04-30 20:41 | 51.47700 | -0.61461 | 1716 ft | 144 kts | 96° |
| 2026-04-30 20:42 | 51.47707 | -0.59844 | 1519 ft | 146 kts | 96° |
| 2026-04-30 20:42 | 51.47712 | -0.58244 | 1317 ft | 141 kts | 94° |
| 2026-04-30 20:42 | 51.47723 | -0.55258 | 966 ft | 134 kts | 92° |
| 2026-04-30 20:43 | 51.47717 | -0.53758 | 795 ft | 135 kts | 90° |
| 2026-04-30 20:43 | 51.47723 | -0.52262 | 596 ft | 134 kts | 86° |
| 2026-04-30 20:43 | 51.47739 | -0.50750 | 411 ft | 138 kts | 88° |
| 2026-04-30 20:44 | 51.47757 | -0.47706 | 103 ft | 134 kts | 88° |
| 2026-04-30 20:44 | 51.47758 | -0.46334 | 96 ft | 108 kts | 89° |
| 2026-04-30 20:44 | 51.47750 | -0.44599 | 95 ft | 39 kts | 105° |
| 2026-04-30 20:45 | 51.47600 | -0.44269 | 95 ft | 9 kts | 250° |
| 2026-04-30 20:45 | 51.47600 | -0.44321 | 94 ft | 0 kts | 270° |
| 2026-04-30 20:46 | 51.47600 | -0.44388 | 92 ft | 13 kts | 269° |
| 2026-04-30 20:46 | 51.47599 | -0.44555 | 92 ft | 17 kts | 270° |
| 2026-04-30 20:47 | 51.47597 | -0.44994 | 94 ft | 21 kts | 270° |
| 2026-04-30 20:47 | 51.47597 | -0.45240 | 93 ft | 24 kts | 270° |
| 2026-04-30 20:48 | 51.47510 | -0.45579 | 96 ft | 17 kts | 267° |
| 2026-04-30 20:48 | 51.47516 | -0.45783 | 93 ft | 20 kts | 276° |
| 2026-04-30 20:48 | 51.47519 | -0.46020 | 95 ft | 23 kts | 268° |
| 2026-04-30 20:48 | 51.47516 | -0.46193 | 92 ft | 24 kts | 269° |
| 2026-04-30 20:49 | 51.47514 | -0.46557 | 95 ft | 21 kts | 270° |
| 2026-04-30 20:49 | 51.47511 | -0.46720 | 93 ft | 9 kts | 256° |
| 2026-04-30 20:49 | 51.47494 | -0.46840 | 95 ft | 13 kts | 267° |
| 2026-04-30 20:50 | 51.47491 | -0.47122 | 92 ft | 18 kts | 270° |
| 2026-04-30 20:50 | 51.47491 | -0.47338 | 92 ft | 21 kts | 270° |
| 2026-04-30 20:50 | 51.47490 | -0.47587 | 92 ft | 24 kts | 270° |
| 2026-04-30 20:50 | 51.47489 | -0.47864 | 94 ft | 26 kts | 270° |
| 2026-04-30 20:51 | 51.47489 | -0.48123 | 95 ft | 19 kts | 270° |
| 2026-04-30 20:51 | 51.47409 | -0.48358 | 93 ft | 14 kts | 179° |
| 2026-04-30 20:51 | 51.47330 | -0.48354 | 95 ft | 4 kts | 161° |
| 2026-04-30 20:52 | 51.47317 | -0.48312 | 97 ft | 5 kts | 107° |
| 2026-04-30 20:52 | 51.47315 | -0.48252 | 92 ft | 2 kts | 90° |
| 2026-04-30 20:52 | 51.47315 | -0.48237 | 95 ft | 0 kts | 90° |